Bookmark and Share
Track history (hours):
 

Oscar Walters

More information available from US FCC via Universal Licensing System and Coast Guard Vessel Documentation Center.

Last reported at 2014-Apr-12 16:33 UTC. Time now 2014-Apr-16 13:47 UTC.
Position N 29°58' W 090°24'.

Length 20 m; draft 2 m.

Type: Towing. MMSI: 367014390.

NotesDate/timePositionNaut miles runAvg speedWind from/ knotsBaromVisibWave heightAir tempDewpointWater temp
2014-Apr-12 16:33N 29°58' W 090°24'  
2014-Apr-10 12:24N 29°58' W 090°24'3 3.5
2014-Apr-10 11:30N 29°56' W 090°22'  
2014-Apr-07 12:33N 29°57' W 090°24'2 0.4
2014-Apr-07 06:20N 29°56' W 090°21'0 0.0
2014-Apr-07 05:23N 29°56' W 090°21'0 0.0
2014-Apr-07 04:33N 29°56' W 090°21'0 0.0
2014-Apr-07 03:33N 29°56' W 090°21'0 0.0
2014-Apr-07 01:33N 29°56' W 090°21'0 0.0
2014-Apr-05 21:14N 29°56' W 090°21'5 7.1
2014-Apr-05 20:33N 29°60' W 090°25'3 3.2
2014-Apr-05 19:33N 30°02' W 090°28'0 0.0
2014-Apr-05 18:33N 30°02' W 090°28'0 0.1
2014-Apr-05 17:33N 30°02' W 090°28'0 0.0
2014-Apr-05 16:33N 30°02' W 090°28'0 0.0
2014-Apr-05 15:33N 30°02' W 090°28'0 0.1
2014-Apr-05 14:31N 30°02' W 090°28'0 0.2
2014-Apr-05 13:33N 30°02' W 090°28'0 0.1
2014-Apr-05 12:33N 30°02' W 090°28'0 0.0
2014-Apr-05 11:33N 30°02' W 090°28'0 0.0
2014-Apr-05 10:33N 30°02' W 090°28'0 0.0
2014-Apr-05 09:33N 30°02' W 090°28'0 0.0
2014-Apr-05 08:33N 30°02' W 090°28'0 0.0
2014-Apr-05 07:33N 30°02' W 090°28'0 0.0
2014-Apr-05 06:33N 30°02' W 090°28'0 0.0
2014-Apr-05 05:33N 30°02' W 090°28'0 0.0
2014-Apr-05 04:33N 30°02' W 090°28'0 0.0
2014-Apr-05 03:33N 30°02' W 090°28'0 0.0
2014-Apr-05 02:24N 30°02' W 090°28'0 0.0
2014-Apr-05 01:33N 30°02' W 090°28'0 0.0
2014-Apr-05 00:33N 30°02' W 090°28'0 0.0
2014-Apr-04 23:33N 30°02' W 090°28'0 0.0
2014-Apr-04 22:33N 30°02' W 090°28'6 0.6
2014-Apr-04 12:28N 29°58' W 090°24'0 0.1
2014-Apr-04 11:33N 29°58' W 090°24'0 0.0
2014-Apr-04 10:33N 29°58' W 090°24'0 0.0
2014-Apr-04 09:33N 29°58' W 090°24'0 0.0
2014-Apr-04 08:33N 29°58' W 090°24'0 0.0
2014-Apr-04 07:33N 29°58' W 090°24'0 0.0
2014-Apr-04 06:33N 29°58' W 090°24'0 0.0
2014-Apr-04 05:33N 29°58' W 090°24'0 0.0
2014-Apr-04 04:33N 29°58' W 090°24'0 0.0
2014-Apr-04 03:33N 29°58' W 090°24'0 0.0
2014-Apr-04 02:33N 29°58' W 090°24'0 0.0
2014-Apr-04 01:31N 29°58' W 090°24'0 0.0
2014-Apr-04 00:32N 29°58' W 090°24'0 0.0
2014-Apr-03 23:33N 29°58' W 090°24'  

Dump ship's entire track history

sailing weather and tide predictions

Oscar Walters — WDC3799 — position and weather